sim
Sign-in with your pilot id or email,
or register
Callsign
Passwort

Schedule Details

Flight Number: OEO2545
Departure: Nice Cote d'Azur Airport (LFMN) at 05:40
Arrival: Bremen Airport (EDDW) at 07:40

Weather Information
Getting current METAR information for LFMN 112100Z 09014KT 9999 SCT016 25/22 Q1014 NOSIG
Getting current METAR information for EDDW 112050Z 24001KT 9999 FEW033 12/12 Q1026 NOSIG

Schedule Frequency

Route Map